sensor_id;sensor_type;location;lat;lon;timestamp;temperature;humidity
6518;DHT22;3292;48.944;9.240;2022-09-23T00:01:31;8.60;99.90
6518;DHT22;3292;48.944;9.240;2022-09-23T00:04:00;8.50;99.90
6518;DHT22;3292;48.944;9.240;2022-09-23T00:06:27;8.50;99.90
6518;DHT22;3292;48.944;9.240;2022-09-23T00:08:57;8.50;99.90
6518;DHT22;3292;48.944;9.240;2022-09-23T00:11:25;8.50;99.90
6518;DHT22;3292;48.944;9.240;2022-09-23T00:13:56;8.50;99.90
6518;DHT22;3292;48.944;9.240;2022-09-23T00:16:30;8.50;99.90
6518;DHT22;3292;48.944;9.240;2022-09-23T00:19:01;8.50;99.90
6518;DHT22;3292;48.944;9.240;2022-09-23T00:21:31;8.40;99.90
6518;DHT22;3292;48.944;9.240;2022-09-23T00:23:58;8.40;99.90
6518;DHT22;3292;48.944;9.240;2022-09-23T00:26:25;8.40;99.90
6518;DHT22;3292;48.944;9.240;2022-09-23T00:28:52;8.40;99.90
6518;DHT22;3292;48.944;9.240;2022-09-23T00:31:21;8.40;99.90
6518;DHT22;3292;48.944;9.240;2022-09-23T00:33:57;8.40;99.90
6518;DHT22;3292;48.944;9.240;2022-09-23T00:36:25;8.40;99.90
6518;DHT22;3292;48.944;9.240;2022-09-23T00:38:54;8.40;99.90
6518;DHT22;3292;48.944;9.240;2022-09-23T00:41:21;8.30;99.90
6518;DHT22;3292;48.944;9.240;2022-09-23T00:43:49;8.30;99.90
6518;DHT22;3292;48.944;9.240;2022-09-23T00:46:22;8.30;99.90
6518;DHT22;3292;48.944;9.240;2022-09-23T00:48:53;8.20;99.90
6518;DHT22;3292;48.944;9.240;2022-09-23T00:51:26;8.20;99.90
6518;DHT22;3292;48.944;9.240;2022-09-23T00:53:58;8.20;99.90
6518;DHT22;3292;48.944;9.240;2022-09-23T00:56:33;8.10;99.90
6518;DHT22;3292;48.944;9.240;2022-09-23T00:59:01;8.10;99.90
6518;DHT22;3292;48.944;9.240;2022-09-23T01:01:30;8.10;99.90
6518;DHT22;3292;48.944;9.240;2022-09-23T01:03:57;8.00;99.90
6518;DHT22;3292;48.944;9.240;2022-09-23T01:06:25;8.00;99.90
6518;DHT22;3292;48.944;9.240;2022-09-23T01:08:56;7.90;99.90
6518;DHT22;3292;48.944;9.240;2022-09-23T01:11:35;7.90;99.90
6518;DHT22;3292;48.944;9.240;2022-09-23T01:14:16;7.90;99.90
6518;DHT22;3292;48.944;9.240;2022-09-23T01:16:52;7.90;99.90
6518;DHT22;3292;48.944;9.240;2022-09-23T01:19:41;7.80;99.90
6518;DHT22;3292;48.944;9.240;2022-09-23T01:22:27;7.80;99.90
6518;DHT22;3292;48.944;9.240;2022-09-23T01:25:09;7.70;99.90
6518;DHT22;3292;48.944;9.240;2022-09-23T01:27:50;7.70;99.90
6518;DHT22;3292;48.944;9.240;2022-09-23T01:30:37;7.70;99.90
6518;DHT22;3292;48.944;9.240;2022-09-23T01:33:13;7.60;99.90
6518;DHT22;3292;48.944;9.240;2022-09-23T01:36:01;7.60;99.90
6518;DHT22;3292;48.944;9.240;2022-09-23T01:38:43;7.50;99.90
6518;DHT22;3292;48.944;9.240;2022-09-23T01:41:25;7.50;99.90
6518;DHT22;3292;48.944;9.240;2022-09-23T01:44:00;7.50;99.90
6518;DHT22;3292;48.944;9.240;2022-09-23T01:46:34;7.50;99.90
6518;DHT22;3292;48.944;9.240;2022-09-23T01:49:08;7.50;99.90
6518;DHT22;3292;48.944;9.240;2022-09-23T01:51:42;7.50;99.90
6518;DHT22;3292;48.944;9.240;2022-09-23T01:54:13;7.50;99.90
6518;DHT22;3292;48.944;9.240;2022-09-23T01:56:45;7.40;99.90
6518;DHT22;3292;48.944;9.240;2022-09-23T01:59:17;7.40;99.90
6518;DHT22;3292;48.944;9.240;2022-09-23T02:01:52;7.40;99.90
6518;DHT22;3292;48.944;9.240;2022-09-23T02:04:28;7.40;99.90
6518;DHT22;3292;48.944;9.240;2022-09-23T02:07:01;7.40;99.90
6518;DHT22;3292;48.944;9.240;2022-09-23T02:09:32;7.40;99.90
6518;DHT22;3292;48.944;9.240;2022-09-23T02:12:10;7.30;99.90
6518;DHT22;3292;48.944;9.240;2022-09-23T02:14:45;7.30;99.90
6518;DHT22;3292;48.944;9.240;2022-09-23T02:17:23;7.30;99.90
6518;DHT22;3292;48.944;9.240;2022-09-23T02:19:54;7.30;99.90
6518;DHT22;3292;48.944;9.240;2022-09-23T02:22:25;7.20;99.90
6518;DHT22;3292;48.944;9.240;2022-09-23T02:24:54;7.20;99.90
6518;DHT22;3292;48.944;9.240;2022-09-23T02:27:25;7.20;99.90
6518;DHT22;3292;48.944;9.240;2022-09-23T02:29:59;7.20;99.90
6518;DHT22;3292;48.944;9.240;2022-09-23T02:32:36;7.10;99.90
6518;DHT22;3292;48.944;9.240;2022-09-23T02:35:14;7.10;99.90
6518;DHT22;3292;48.944;9.240;2022-09-23T02:37:48;7.10;99.90
6518;DHT22;3292;48.944;9.240;2022-09-23T02:40:21;7.10;99.90
6518;DHT22;3292;48.944;9.240;2022-09-23T02:42:57;7.10;99.90
6518;DHT22;3292;48.944;9.240;2022-09-23T02:45:27;7.10;99.90
6518;DHT22;3292;48.944;9.240;2022-09-23T02:48:01;7.00;99.90
6518;DHT22;3292;48.944;9.240;2022-09-23T02:50:30;7.00;99.90
6518;DHT22;3292;48.944;9.240;2022-09-23T02:53:02;7.00;99.90
6518;DHT22;3292;48.944;9.240;2022-09-23T02:55:29;7.00;99.90
6518;DHT22;3292;48.944;9.240;2022-09-23T02:57:58;7.00;99.90
6518;DHT22;3292;48.944;9.240;2022-09-23T03:00:33;7.00;99.90
6518;DHT22;3292;48.944;9.240;2022-09-23T03:03:14;7.00;99.90
6518;DHT22;3292;48.944;9.240;2022-09-23T03:05:52;6.90;99.90
6518;DHT22;3292;48.944;9.240;2022-09-23T03:08:35;6.90;99.90
6518;DHT22;3292;48.944;9.240;2022-09-23T03:11:06;6.90;99.90
6518;DHT22;3292;48.944;9.240;2022-09-23T03:13:45;6.90;99.90
6518;DHT22;3292;48.944;9.240;2022-09-23T03:16:23;6.90;99.90
6518;DHT22;3292;48.944;9.240;2022-09-23T03:18:56;6.90;99.90
6518;DHT22;3292;48.944;9.240;2022-09-23T03:21:31;6.90;99.90
6518;DHT22;3292;48.944;9.240;2022-09-23T03:24:02;6.90;99.90
6518;DHT22;3292;48.944;9.240;2022-09-23T03:26:36;6.90;99.90
6518;DHT22;3292;48.944;9.240;2022-09-23T03:29:06;6.80;99.90
6518;DHT22;3292;48.944;9.240;2022-09-23T03:31:35;6.80;99.90
6518;DHT22;3292;48.944;9.240;2022-09-23T03:34:09;6.80;99.90
6518;DHT22;3292;48.944;9.240;2022-09-23T03:36:45;6.80;99.90
6518;DHT22;3292;48.944;9.240;2022-09-23T03:39:34;6.80;99.90
6518;DHT22;3292;48.944;9.240;2022-09-23T03:42:04;6.70;99.90
6518;DHT22;3292;48.944;9.240;2022-09-23T03:44:34;6.70;99.90
6518;DHT22;3292;48.944;9.240;2022-09-23T03:47:05;6.70;99.90
6518;DHT22;3292;48.944;9.240;2022-09-23T03:49:35;6.60;99.90
6518;DHT22;3292;48.944;9.240;2022-09-23T03:52:03;6.60;99.90
6518;DHT22;3292;48.944;9.240;2022-09-23T03:54:30;6.60;99.90
6518;DHT22;3292;48.944;9.240;2022-09-23T03:56:59;6.60;99.90
6518;DHT22;3292;48.944;9.240;2022-09-23T03:59:28;6.60;99.90
6518;DHT22;3292;48.944;9.240;2022-09-23T04:01:56;6.60;99.90
6518;DHT22;3292;48.944;9.240;2022-09-23T04:04:24;6.60;99.90
6518;DHT22;3292;48.944;9.240;2022-09-23T04:06:55;6.60;99.90
6518;DHT22;3292;48.944;9.240;2022-09-23T04:09:22;6.50;99.90
6518;DHT22;3292;48.944;9.240;2022-09-23T04:11:55;6.50;99.90
6518;DHT22;3292;48.944;9.240;2022-09-23T04:14:24;6.50;99.90
6518;DHT22;3292;48.944;9.240;2022-09-23T04:16:51;6.50;99.90
6518;DHT22;3292;48.944;9.240;2022-09-23T04:19:20;6.50;99.90
6518;DHT22;3292;48.944;9.240;2022-09-23T04:21:50;6.50;99.90
6518;DHT22;3292;48.944;9.240;2022-09-23T04:24:22;6.50;99.90
6518;DHT22;3292;48.944;9.240;2022-09-23T04:26:50;6.50;99.90
6518;DHT22;3292;48.944;9.240;2022-09-23T04:29:24;6.50;99.90
6518;DHT22;3292;48.944;9.240;2022-09-23T04:31:51;6.50;99.90
6518;DHT22;3292;48.944;9.240;2022-09-23T04:34:21;6.40;99.90
6518;DHT22;3292;48.944;9.240;2022-09-23T04:36:48;6.40;99.90
6518;DHT22;3292;48.944;9.240;2022-09-23T04:39:23;6.40;99.90
6518;DHT22;3292;48.944;9.240;2022-09-23T04:41:51;6.40;99.90
6518;DHT22;3292;48.944;9.240;2022-09-23T04:44:18;6.40;99.90
6518;DHT22;3292;48.944;9.240;2022-09-23T04:46:49;6.50;99.90
6518;DHT22;3292;48.944;9.240;2022-09-23T04:49:19;6.50;99.90
6518;DHT22;3292;48.944;9.240;2022-09-23T04:51:46;6.40;99.90
6518;DHT22;3292;48.944;9.240;2022-09-23T04:54:15;6.40;99.90
6518;DHT22;3292;48.944;9.240;2022-09-23T04:56:44;6.40;99.90
6518;DHT22;3292;48.944;9.240;2022-09-23T04:59:13;6.30;99.90
6518;DHT22;3292;48.944;9.240;2022-09-23T05:01:40;6.30;99.90
6518;DHT22;3292;48.944;9.240;2022-09-23T05:04:10;6.30;99.90
6518;DHT22;3292;48.944;9.240;2022-09-23T05:06:42;6.30;99.90
6518;DHT22;3292;48.944;9.240;2022-09-23T05:09:17;6.30;99.90
6518;DHT22;3292;48.944;9.240;2022-09-23T05:11:45;6.30;99.90
6518;DHT22;3292;48.944;9.240;2022-09-23T05:14:14;6.40;99.90
6518;DHT22;3292;48.944;9.240;2022-09-23T05:16:40;6.40;99.90
6518;DHT22;3292;48.944;9.240;2022-09-23T05:19:07;6.40;99.90
6518;DHT22;3292;48.944;9.240;2022-09-23T05:21:38;6.40;99.90
6518;DHT22;3292;48.944;9.240;2022-09-23T05:24:07;6.40;99.90
6518;DHT22;3292;48.944;9.240;2022-09-23T05:26:34;6.40;99.90
6518;DHT22;3292;48.944;9.240;2022-09-23T05:29:03;6.50;99.90
6518;DHT22;3292;48.944;9.240;2022-09-23T05:31:29;6.50;99.90
6518;DHT22;3292;48.944;9.240;2022-09-23T05:33:57;6.60;99.90
6518;DHT22;3292;48.944;9.240;2022-09-23T05:36:31;6.70;99.90
6518;DHT22;3292;48.944;9.240;2022-09-23T05:38:59;6.80;99.90
6518;DHT22;3292;48.944;9.240;2022-09-23T05:41:30;6.90;99.90
6518;DHT22;3292;48.944;9.240;2022-09-23T05:44:00;6.90;99.90
6518;DHT22;3292;48.944;9.240;2022-09-23T05:46:32;7.00;99.90
6518;DHT22;3292;48.944;9.240;2022-09-23T05:49:04;7.00;99.90
6518;DHT22;3292;48.944;9.240;2022-09-23T05:51:32;7.00;99.90
6518;DHT22;3292;48.944;9.240;2022-09-23T05:54:00;7.20;99.90
6518;DHT22;3292;48.944;9.240;2022-09-23T05:56:32;7.30;99.90
6518;DHT22;3292;48.944;9.240;2022-09-23T05:59:03;7.40;99.90
6518;DHT22;3292;48.944;9.240;2022-09-23T06:01:33;7.50;99.90
6518;DHT22;3292;48.944;9.240;2022-09-23T06:04:02;7.50;99.90
6518;DHT22;3292;48.944;9.240;2022-09-23T06:06:31;7.60;99.90
6518;DHT22;3292;48.944;9.240;2022-09-23T06:09:01;7.80;99.90
6518;DHT22;3292;48.944;9.240;2022-09-23T06:11:31;7.90;99.90
6518;DHT22;3292;48.944;9.240;2022-09-23T06:13:59;8.00;99.90
6518;DHT22;3292;48.944;9.240;2022-09-23T06:16:27;8.10;99.90
6518;DHT22;3292;48.944;9.240;2022-09-23T06:18:56;8.20;99.90
6518;DHT22;3292;48.944;9.240;2022-09-23T06:21:25;8.30;99.90
6518;DHT22;3292;48.944;9.240;2022-09-23T06:23:52;8.50;99.90
6518;DHT22;3292;48.944;9.240;2022-09-23T06:26:19;8.70;99.90
6518;DHT22;3292;48.944;9.240;2022-09-23T06:28:47;8.70;99.90
6518;DHT22;3292;48.944;9.240;2022-09-23T06:31:15;8.80;99.90
6518;DHT22;3292;48.944;9.240;2022-09-23T06:33:43;8.60;99.90
6518;DHT22;3292;48.944;9.240;2022-09-23T06:36:18;8.60;99.90
6518;DHT22;3292;48.944;9.240;2022-09-23T06:38:50;8.60;99.90
6518;DHT22;3292;48.944;9.240;2022-09-23T06:41:20;8.80;99.90
6518;DHT22;3292;48.944;9.240;2022-09-23T06:43:47;9.10;99.90
6518;DHT22;3292;48.944;9.240;2022-09-23T06:46:16;9.40;99.90
6518;DHT22;3292;48.944;9.240;2022-09-23T06:48:43;9.50;99.90
6518;DHT22;3292;48.944;9.240;2022-09-23T06:51:15;9.70;99.90
6518;DHT22;3292;48.944;9.240;2022-09-23T06:53:45;10.00;99.90
6518;DHT22;3292;48.944;9.240;2022-09-23T06:56:13;10.30;99.90
6518;DHT22;3292;48.944;9.240;2022-09-23T06:58:43;10.40;99.90
6518;DHT22;3292;48.944;9.240;2022-09-23T07:01:14;10.60;99.90
6518;DHT22;3292;48.944;9.240;2022-09-23T07:03:47;10.80;99.90
6518;DHT22;3292;48.944;9.240;2022-09-23T07:06:16;10.70;99.90
6518;DHT22;3292;48.944;9.240;2022-09-23T07:08:45;10.90;99.90
6518;DHT22;3292;48.944;9.240;2022-09-23T07:11:13;11.00;99.90
6518;DHT22;3292;48.944;9.240;2022-09-23T07:13:41;11.00;99.90
6518;DHT22;3292;48.944;9.240;2022-09-23T07:16:10;11.00;99.90
6518;DHT22;3292;48.944;9.240;2022-09-23T07:18:45;11.30;99.90
6518;DHT22;3292;48.944;9.240;2022-09-23T07:21:14;11.50;99.90
6518;DHT22;3292;48.944;9.240;2022-09-23T07:23:46;11.80;99.90
6518;DHT22;3292;48.944;9.240;2022-09-23T07:26:16;12.20;99.90
6518;DHT22;3292;48.944;9.240;2022-09-23T07:28:45;12.30;99.90
6518;DHT22;3292;48.944;9.240;2022-09-23T07:31:17;12.50;99.90
6518;DHT22;3292;48.944;9.240;2022-09-23T07:33:46;12.50;99.90
6518;DHT22;3292;48.944;9.240;2022-09-23T07:36:14;12.30;99.90
6518;DHT22;3292;48.944;9.240;2022-09-23T07:38:52;12.30;99.90
6518;DHT22;3292;48.944;9.240;2022-09-23T07:41:22;12.40;99.90
6518;DHT22;3292;48.944;9.240;2022-09-23T07:43:50;12.40;99.90
6518;DHT22;3292;48.944;9.240;2022-09-23T07:46:26;12.60;99.90
6518;DHT22;3292;48.944;9.240;2022-09-23T07:48:54;12.80;99.90
6518;DHT22;3292;48.944;9.240;2022-09-23T07:51:22;12.70;99.90
6518;DHT22;3292;48.944;9.240;2022-09-23T07:53:52;12.90;99.90
6518;DHT22;3292;48.944;9.240;2022-09-23T07:56:24;12.70;99.90
6518;DHT22;3292;48.944;9.240;2022-09-23T07:58:54;13.00;99.90
6518;DHT22;3292;48.944;9.240;2022-09-23T08:01:25;12.80;99.90
6518;DHT22;3292;48.944;9.240;2022-09-23T08:03:56;12.80;99.90
6518;DHT22;3292;48.944;9.240;2022-09-23T08:06:25;12.80;99.90
6518;DHT22;3292;48.944;9.240;2022-09-23T08:08:56;12.80;99.90
6518;DHT22;3292;48.944;9.240;2022-09-23T08:11:24;12.80;99.90
6518;DHT22;3292;48.944;9.240;2022-09-23T08:13:51;12.80;99.90
6518;DHT22;3292;48.944;9.240;2022-09-23T08:16:20;13.00;99.90
6518;DHT22;3292;48.944;9.240;2022-09-23T08:18:49;13.10;99.90
6518;DHT22;3292;48.944;9.240;2022-09-23T08:21:19;13.20;99.90
6518;DHT22;3292;48.944;9.240;2022-09-23T08:23:47;13.10;99.90
6518;DHT22;3292;48.944;9.240;2022-09-23T08:26:18;13.10;99.90
6518;DHT22;3292;48.944;9.240;2022-09-23T08:28:48;13.20;99.90
6518;DHT22;3292;48.944;9.240;2022-09-23T08:31:19;13.40;99.90
6518;DHT22;3292;48.944;9.240;2022-09-23T08:33:46;13.60;99.90
6518;DHT22;3292;48.944;9.240;2022-09-23T08:36:13;13.80;99.90
6518;DHT22;3292;48.944;9.240;2022-09-23T08:38:41;13.80;99.90
6518;DHT22;3292;48.944;9.240;2022-09-23T08:41:15;13.80;99.90
6518;DHT22;3292;48.944;9.240;2022-09-23T08:43:53;13.80;99.90
6518;DHT22;3292;48.944;9.240;2022-09-23T08:46:27;13.80;99.90
6518;DHT22;3292;48.944;9.240;2022-09-23T08:49:04;14.00;99.90
6518;DHT22;3292;48.944;9.240;2022-09-23T08:51:38;13.90;99.90
6518;DHT22;3292;48.944;9.240;2022-09-23T08:54:10;13.90;99.90
6518;DHT22;3292;48.944;9.240;2022-09-23T08:56:43;14.00;99.90
6518;DHT22;3292;48.944;9.240;2022-09-23T08:59:26;14.00;99.90
6518;DHT22;3292;48.944;9.240;2022-09-23T09:02:00;14.10;99.90
6518;DHT22;3292;48.944;9.240;2022-09-23T09:04:41;14.10;99.90
6518;DHT22;3292;48.944;9.240;2022-09-23T09:07:21;14.00;99.90
6518;DHT22;3292;48.944;9.240;2022-09-23T09:10:02;14.10;99.90
6518;DHT22;3292;48.944;9.240;2022-09-23T09:12:36;14.20;99.90
6518;DHT22;3292;48.944;9.240;2022-09-23T09:15:11;14.40;99.90
6518;DHT22;3292;48.944;9.240;2022-09-23T09:17:50;14.60;99.90
6518;DHT22;3292;48.944;9.240;2022-09-23T09:20:37;14.80;99.90
6518;DHT22;3292;48.944;9.240;2022-09-23T09:23:16;14.90;99.90
6518;DHT22;3292;48.944;9.240;2022-09-23T09:25:48;15.10;99.90
6518;DHT22;3292;48.944;9.240;2022-09-23T09:28:22;15.50;99.90
6518;DHT22;3292;48.944;9.240;2022-09-23T09:31:01;15.60;99.90
6518;DHT22;3292;48.944;9.240;2022-09-23T09:33:42;16.00;99.90
6518;DHT22;3292;48.944;9.240;2022-09-23T09:36:21;16.00;99.90
6518;DHT22;3292;48.944;9.240;2022-09-23T09:38:54;16.10;99.90
6518;DHT22;3292;48.944;9.240;2022-09-23T09:41:35;16.10;99.90
6518;DHT22;3292;48.944;9.240;2022-09-23T09:44:20;16.20;99.90
6518;DHT22;3292;48.944;9.240;2022-09-23T09:47:02;16.00;99.90
6518;DHT22;3292;48.944;9.240;2022-09-23T09:49:39;16.20;99.90
6518;DHT22;3292;48.944;9.240;2022-09-23T09:52:21;16.40;99.90
6518;DHT22;3292;48.944;9.240;2022-09-23T09:54:52;16.70;99.90
6518;DHT22;3292;48.944;9.240;2022-09-23T09:57:31;16.90;99.90
6518;DHT22;3292;48.944;9.240;2022-09-23T10:03:01;17.20;99.90
6518;DHT22;3292;48.944;9.240;2022-09-23T10:05:31;17.30;99.90
6518;DHT22;3292;48.944;9.240;2022-09-23T10:08:20;17.60;99.90
6518;DHT22;3292;48.944;9.240;2022-09-23T10:10:50;17.60;99.90
6518;DHT22;3292;48.944;9.240;2022-09-23T10:13:20;17.80;99.90
6518;DHT22;3292;48.944;9.240;2022-09-23T10:15:49;17.90;99.90
6518;DHT22;3292;48.944;9.240;2022-09-23T10:18:27;18.10;99.90
6518;DHT22;3292;48.944;9.240;2022-09-23T10:21:00;18.30;99.90
6518;DHT22;3292;48.944;9.240;2022-09-23T10:23:29;18.50;99.90
6518;DHT22;3292;48.944;9.240;2022-09-23T10:25:59;18.60;99.90
6518;DHT22;3292;48.944;9.240;2022-09-23T10:28:40;18.60;99.90
6518;DHT22;3292;48.944;9.240;2022-09-23T10:31:09;18.60;99.90
6518;DHT22;3292;48.944;9.240;2022-09-23T10:33:47;18.80;99.90
6518;DHT22;3292;48.944;9.240;2022-09-23T10:36:15;18.80;99.90
6518;DHT22;3292;48.944;9.240;2022-09-23T10:38:52;18.80;99.90
6518;DHT22;3292;48.944;9.240;2022-09-23T10:41:30;18.70;99.90
6518;DHT22;3292;48.944;9.240;2022-09-23T10:44:30;18.90;99.90
6518;DHT22;3292;48.944;9.240;2022-09-23T10:47:27;19.10;99.90
6518;DHT22;3292;48.944;9.240;2022-09-23T10:50:13;19.40;99.90
6518;DHT22;3292;48.944;9.240;2022-09-23T10:53:01;19.40;99.90
6518;DHT22;3292;48.944;9.240;2022-09-23T10:55:51;19.70;99.90
6518;DHT22;3292;48.944;9.240;2022-09-23T10:58:33;19.90;99.90
6518;DHT22;3292;48.944;9.240;2022-09-23T11:01:19;20.10;99.90
6518;DHT22;3292;48.944;9.240;2022-09-23T11:04:22;20.20;99.90
6518;DHT22;3292;48.944;9.240;2022-09-23T11:07:08;20.40;99.90
6518;DHT22;3292;48.944;9.240;2022-09-23T11:09:48;20.50;99.90
6518;DHT22;3292;48.944;9.240;2022-09-23T11:12:27;20.50;99.90
6518;DHT22;3292;48.944;9.240;2022-09-23T11:15:12;20.50;99.90
6518;DHT22;3292;48.944;9.240;2022-09-23T11:20:42;20.40;99.90
6518;DHT22;3292;48.944;9.240;2022-09-23T11:23:34;20.50;99.90
6518;DHT22;3292;48.944;9.240;2022-09-23T11:26:12;20.70;99.90
6518;DHT22;3292;48.944;9.240;2022-09-23T11:29:09;20.50;99.90
6518;DHT22;3292;48.944;9.240;2022-09-23T11:31:45;20.60;99.90
6518;DHT22;3292;48.944;9.240;2022-09-23T11:37:18;20.60;99.90
6518;DHT22;3292;48.944;9.240;2022-09-23T11:39:49;20.80;99.90
6518;DHT22;3292;48.944;9.240;2022-09-23T11:42:21;20.90;99.90
6518;DHT22;3292;48.944;9.240;2022-09-23T11:44:53;21.10;99.90
6518;DHT22;3292;48.944;9.240;2022-09-23T11:47:27;21.00;99.90
6518;DHT22;3292;48.944;9.240;2022-09-23T11:50:00;21.00;99.90
6518;DHT22;3292;48.944;9.240;2022-09-23T11:52:38;20.90;99.90
6518;DHT22;3292;48.944;9.240;2022-09-23T11:55:14;20.80;99.90
6518;DHT22;3292;48.944;9.240;2022-09-23T11:57:44;20.80;99.90
6518;DHT22;3292;48.944;9.240;2022-09-23T12:00:21;21.00;99.90
6518;DHT22;3292;48.944;9.240;2022-09-23T12:02:58;20.90;99.90
6518;DHT22;3292;48.944;9.240;2022-09-23T12:05:32;21.00;99.90
6518;DHT22;3292;48.944;9.240;2022-09-23T12:08:04;20.80;99.90
6518;DHT22;3292;48.944;9.240;2022-09-23T12:10:42;20.80;99.90
6518;DHT22;3292;48.944;9.240;2022-09-23T12:13:18;20.80;99.90
6518;DHT22;3292;48.944;9.240;2022-09-23T12:15:59;20.90;99.90
6518;DHT22;3292;48.944;9.240;2022-09-23T12:18:38;20.70;99.90
6518;DHT22;3292;48.944;9.240;2022-09-23T12:27:01;20.80;99.90
6518;DHT22;3292;48.944;9.240;2022-09-23T12:29:34;21.00;99.90
6518;DHT22;3292;48.944;9.240;2022-09-23T12:32:05;20.80;99.90
6518;DHT22;3292;48.944;9.240;2022-09-23T12:34:38;20.80;99.90
6518;DHT22;3292;48.944;9.240;2022-09-23T12:37:06;20.80;99.90
6518;DHT22;3292;48.944;9.240;2022-09-23T12:39:34;20.90;99.90
6518;DHT22;3292;48.944;9.240;2022-09-23T12:42:09;21.10;99.90
6518;DHT22;3292;48.944;9.240;2022-09-23T12:44:41;21.10;99.90
6518;DHT22;3292;48.944;9.240;2022-09-23T12:50:47;21.00;99.90
6518;DHT22;3292;48.944;9.240;2022-09-23T12:59:27;21.00;99.90
6518;DHT22;3292;48.944;9.240;2022-09-23T13:01:55;21.00;99.90
6518;DHT22;3292;48.944;9.240;2022-09-23T13:04:27;21.10;99.90
6518;DHT22;3292;48.944;9.240;2022-09-23T13:07:15;21.30;99.90
6518;DHT22;3292;48.944;9.240;2022-09-23T13:09:48;21.30;99.90
6518;DHT22;3292;48.944;9.240;2022-09-23T13:12:20;21.30;99.90
6518;DHT22;3292;48.944;9.240;2022-09-23T13:14:52;21.20;99.90
6518;DHT22;3292;48.944;9.240;2022-09-23T13:17:28;21.30;99.90
6518;DHT22;3292;48.944;9.240;2022-09-23T13:20:02;21.40;99.90
6518;DHT22;3292;48.944;9.240;2022-09-23T13:25:25;21.50;99.90
6518;DHT22;3292;48.944;9.240;2022-09-23T13:27:54;21.40;99.90
6518;DHT22;3292;48.944;9.240;2022-09-23T13:30:23;21.40;99.90
6518;DHT22;3292;48.944;9.240;2022-09-23T13:33:01;21.30;99.90
6518;DHT22;3292;48.944;9.240;2022-09-23T13:35:33;21.40;99.90
6518;DHT22;3292;48.944;9.240;2022-09-23T13:38:09;21.20;99.90
6518;DHT22;3292;48.944;9.240;2022-09-23T13:40:38;21.10;99.90
6518;DHT22;3292;48.944;9.240;2022-09-23T13:43:13;20.90;99.90
6518;DHT22;3292;48.944;9.240;2022-09-23T13:45:44;20.80;99.90
6518;DHT22;3292;48.944;9.240;2022-09-23T13:48:13;20.80;99.90
6518;DHT22;3292;48.944;9.240;2022-09-23T13:50:47;21.00;99.90
6518;DHT22;3292;48.944;9.240;2022-09-23T13:53:22;21.10;99.90
6518;DHT22;3292;48.944;9.240;2022-09-23T13:56:02;21.10;99.90
6518;DHT22;3292;48.944;9.240;2022-09-23T13:58:31;20.80;99.90
6518;DHT22;3292;48.944;9.240;2022-09-23T14:01:00;20.70;99.90
6518;DHT22;3292;48.944;9.240;2022-09-23T14:03:30;20.60;99.90
6518;DHT22;3292;48.944;9.240;2022-09-23T14:05:59;20.50;99.90
6518;DHT22;3292;48.944;9.240;2022-09-23T14:08:29;20.60;99.90
6518;DHT22;3292;48.944;9.240;2022-09-23T14:10:59;20.50;99.90
6518;DHT22;3292;48.944;9.240;2022-09-23T14:13:28;20.30;99.90
6518;DHT22;3292;48.944;9.240;2022-09-23T14:15:58;20.30;99.90
6518;DHT22;3292;48.944;9.240;2022-09-23T14:18:32;20.30;99.90
6518;DHT22;3292;48.944;9.240;2022-09-23T14:21:04;20.20;99.90
6518;DHT22;3292;48.944;9.240;2022-09-23T14:23:32;20.20;99.90
6518;DHT22;3292;48.944;9.240;2022-09-23T14:26:00;20.10;99.90
6518;DHT22;3292;48.944;9.240;2022-09-23T14:28:28;20.00;99.90
6518;DHT22;3292;48.944;9.240;2022-09-23T14:30:56;20.00;99.90
6518;DHT22;3292;48.944;9.240;2022-09-23T14:33:31;20.10;99.90
6518;DHT22;3292;48.944;9.240;2022-09-23T14:36:04;20.20;99.90
6518;DHT22;3292;48.944;9.240;2022-09-23T14:38:41;20.40;99.90
6518;DHT22;3292;48.944;9.240;2022-09-23T14:41:21;20.50;99.90
6518;DHT22;3292;48.944;9.240;2022-09-23T14:43:52;20.60;99.90
6518;DHT22;3292;48.944;9.240;2022-09-23T14:46:21;20.70;99.90
6518;DHT22;3292;48.944;9.240;2022-09-23T14:49:02;20.80;99.90
6518;DHT22;3292;48.944;9.240;2022-09-23T14:51:44;20.60;99.90
6518;DHT22;3292;48.944;9.240;2022-09-23T14:54:29;20.50;99.90
6518;DHT22;3292;48.944;9.240;2022-09-23T14:56:58;20.60;99.90
6518;DHT22;3292;48.944;9.240;2022-09-23T14:59:27;20.50;99.90
6518;DHT22;3292;48.944;9.240;2022-09-23T15:01:58;20.50;99.90
6518;DHT22;3292;48.944;9.240;2022-09-23T15:04:32;20.40;99.90
6518;DHT22;3292;48.944;9.240;2022-09-23T15:07:06;20.30;99.90
6518;DHT22;3292;48.944;9.240;2022-09-23T15:09:37;20.20;99.90
6518;DHT22;3292;48.944;9.240;2022-09-23T15:12:05;20.00;99.90
6518;DHT22;3292;48.944;9.240;2022-09-23T15:14:35;20.00;99.90
6518;DHT22;3292;48.944;9.240;2022-09-23T15:17:05;19.90;99.90
6518;DHT22;3292;48.944;9.240;2022-09-23T15:19:37;19.80;99.90
6518;DHT22;3292;48.944;9.240;2022-09-23T15:22:06;19.70;99.90
6518;DHT22;3292;48.944;9.240;2022-09-23T15:24:36;19.70;99.90
6518;DHT22;3292;48.944;9.240;2022-09-23T15:27:24;19.50;99.90
6518;DHT22;3292;48.944;9.240;2022-09-23T15:29:51;19.40;99.90
6518;DHT22;3292;48.944;9.240;2022-09-23T15:32:19;19.40;99.90
6518;DHT22;3292;48.944;9.240;2022-09-23T15:34:49;19.30;99.90
6518;DHT22;3292;48.944;9.240;2022-09-23T15:37:16;19.20;99.90
6518;DHT22;3292;48.944;9.240;2022-09-23T15:39:43;19.10;99.90
6518;DHT22;3292;48.944;9.240;2022-09-23T15:42:10;19.10;99.90
6518;DHT22;3292;48.944;9.240;2022-09-23T15:44:37;19.00;99.90
6518;DHT22;3292;48.944;9.240;2022-09-23T15:47:04;19.00;99.90
6518;DHT22;3292;48.944;9.240;2022-09-23T15:49:37;18.90;99.90
6518;DHT22;3292;48.944;9.240;2022-09-23T15:52:08;18.80;99.90
6518;DHT22;3292;48.944;9.240;2022-09-23T15:54:36;18.80;99.90
6518;DHT22;3292;48.944;9.240;2022-09-23T15:57:04;18.70;99.90
6518;DHT22;3292;48.944;9.240;2022-09-23T15:59:31;18.60;99.90
6518;DHT22;3292;48.944;9.240;2022-09-23T16:02:01;18.50;99.90
6518;DHT22;3292;48.944;9.240;2022-09-23T16:04:30;18.40;99.90
6518;DHT22;3292;48.944;9.240;2022-09-23T16:06:57;18.40;99.90
6518;DHT22;3292;48.944;9.240;2022-09-23T16:09:26;18.40;99.90
6518;DHT22;3292;48.944;9.240;2022-09-23T16:11:56;18.30;99.90
6518;DHT22;3292;48.944;9.240;2022-09-23T16:14:22;18.30;99.90
6518;DHT22;3292;48.944;9.240;2022-09-23T16:16:52;18.30;99.90
6518;DHT22;3292;48.944;9.240;2022-09-23T16:19:19;18.20;99.90
6518;DHT22;3292;48.944;9.240;2022-09-23T16:21:45;18.10;99.90
6518;DHT22;3292;48.944;9.240;2022-09-23T16:24:17;18.00;99.90
6518;DHT22;3292;48.944;9.240;2022-09-23T16:26:46;17.90;99.90
6518;DHT22;3292;48.944;9.240;2022-09-23T16:29:15;17.90;99.90
6518;DHT22;3292;48.944;9.240;2022-09-23T16:31:41;17.90;99.90
6518;DHT22;3292;48.944;9.240;2022-09-23T16:34:08;17.80;99.90
6518;DHT22;3292;48.944;9.240;2022-09-23T16:36:39;17.80;99.90
6518;DHT22;3292;48.944;9.240;2022-09-23T16:39:09;17.70;99.90
6518;DHT22;3292;48.944;9.240;2022-09-23T16:41:36;17.70;99.90
6518;DHT22;3292;48.944;9.240;2022-09-23T16:44:06;17.60;99.90
6518;DHT22;3292;48.944;9.240;2022-09-23T16:46:35;17.60;99.90
6518;DHT22;3292;48.944;9.240;2022-09-23T16:49:02;17.60;99.90
6518;DHT22;3292;48.944;9.240;2022-09-23T16:51:30;17.40;99.90
6518;DHT22;3292;48.944;9.240;2022-09-23T16:54:04;17.40;99.90
6518;DHT22;3292;48.944;9.240;2022-09-23T16:56:36;17.30;99.90
6518;DHT22;3292;48.944;9.240;2022-09-23T16:59:05;17.20;99.90
6518;DHT22;3292;48.944;9.240;2022-09-23T17:01:32;17.20;99.90
6518;DHT22;3292;48.944;9.240;2022-09-23T17:04:16;17.00;99.90
6518;DHT22;3292;48.944;9.240;2022-09-23T17:06:45;16.90;99.90
6518;DHT22;3292;48.944;9.240;2022-09-23T17:09:15;16.80;99.90